Time;durP1;ratioP1;P1;durP2;ratioP2;P2;SDS_P1;SDS_P2;PMS_P1;PMS_P2;Temp;Humidity;BMP_temperature;BMP_pressure;BME280_temperature;BME280_humidity;BME280_pressure;Samples;Min_cycle;Max_cycle;Signal;HPM_P1;HPM_P2
2021/10/25 00:02:14;;;;;;;33.35;14.02;;;;;;;0.58;100.00;100823.63;5037349;28;20037;-75
2021/10/25 00:04:58;;;;;;;36.35;15.00;;;;;;;0.60;100.00;100817.69;5037409;28;20440;-75
2021/10/25 00:07:43;;;;;;;37.47;14.30;;;;;;;0.54;100.00;100820.09;5037432;28;20048;-75
2021/10/25 00:10:28;;;;;;;34.13;14.95;;;;;;;0.57;100.00;100815.03;5037221;28;20432;-75
2021/10/25 00:13:13;;;;;;;31.05;13.75;;;;;;;0.51;100.00;100811.38;5036993;28;20068;-75
2021/10/25 00:15:58;;;;;;;33.80;15.10;;;;;;;0.45;100.00;100812.94;5037148;28;20064;-75
2021/10/25 00:18:42;;;;;;;40.15;16.08;;;;;;;0.38;100.00;100811.00;5036362;28;20072;-75
2021/10/25 00:21:27;;;;;;;41.53;16.17;;;;;;;0.45;100.00;100806.91;5036233;28;20041;-75
2021/10/25 00:24:11;;;;;;;31.05;14.13;;;;;;;0.43;100.00;100806.00;5036912;28;20064;-75
2021/10/25 00:26:56;;;;;;;33.88;14.73;;;;;;;0.47;100.00;100808.72;5036860;28;20352;-75
2021/10/25 00:29:40;;;;;;;35.13;13.48;;;;;;;0.38;100.00;100799.81;5036234;28;20448;-75
2021/10/25 00:32:25;;;;;;;32.50;14.07;;;;;;;0.37;100.00;100804.09;5035925;28;20443;-75
2021/10/25 00:35:09;;;;;;;31.90;13.02;;;;;;;0.33;100.00;100806.53;5036019;28;20431;-75
2021/10/25 00:37:54;;;;;;;31.08;13.38;;;;;;;0.32;100.00;100807.34;5036762;28;20064;-75
2021/10/25 00:40:38;;;;;;;32.15;14.05;;;;;;;0.28;100.00;100806.38;5035906;28;20072;-75
2021/10/25 00:43:23;;;;;;;29.33;13.07;;;;;;;0.16;100.00;100796.56;5035911;28;20045;-75
2021/10/25 00:46:10;;;;;;;31.73;14.15;;;;;;;0.15;100.00;100799.94;5036607;28;20041;-75
2021/10/25 00:48:54;;;;;;;28.17;12.88;;;;;;;0.03;100.00;100796.94;5035861;28;20399;-75
2021/10/25 00:51:39;;;;;;;30.98;12.88;;;;;;;0.00;100.00;100796.88;5036509;28;20049;-75
2021/10/25 00:54:23;;;;;;;31.45;13.63;;;;;;;-0.03;100.00;100791.63;5021627;28;20054;-75
2021/10/25 00:57:08;;;;;;;34.60;14.32;;;;;;;-0.07;100.00;100794.91;5036340;28;20064;-75
2021/10/25 00:59:53;;;;;;;29.48;12.55;;;;;;;-0.09;100.00;100787.13;5035874;28;20049;-75
2021/10/25 01:02:38;;;;;;;30.55;13.57;;;;;;;-0.09;100.00;100800.00;5021765;28;20120;-75
2021/10/25 01:05:23;;;;;;;31.95;14.65;;;;;;;-0.13;100.00;100789.53;5035630;28;20092;-75
2021/10/25 01:08:09;;;;;;;30.00;14.95;;;;;;;-0.14;100.00;100792.94;5036096;28;20041;-75
2021/10/25 01:10:54;;;;;;;32.50;14.20;;;;;;;-0.17;100.00;100793.72;5035494;28;20084;-75
2021/10/25 01:13:40;;;;;;;32.08;14.43;;;;;;;-0.12;100.00;100794.75;5035556;28;20388;-75
2021/10/25 01:16:26;;;;;;;37.03;14.63;;;;;;;-0.14;100.00;100785.22;5021566;28;20060;-75
2021/10/25 01:19:11;;;;;;;33.45;13.63;;;;;;;-0.15;100.00;100783.47;5035337;28;20053;-75
2021/10/25 01:21:56;;;;;;;32.10;14.15;;;;;;;-0.19;100.00;100779.06;5021625;28;20079;-75
2021/10/25 01:24:43;;;;;;;32.45;14.10;;;;;;;-0.31;100.00;100774.34;5034882;28;20057;-75
2021/10/25 01:27:27;;;;;;;36.78;13.82;;;;;;;-0.35;100.00;100775.09;5035137;28;20033;-75
2021/10/25 01:30:16;;;;;;;31.85;14.25;;;;;;;-0.36;100.00;100768.16;5034847;28;20073;-75
2021/10/25 01:33:02;;;;;;;32.38;14.38;;;;;;;-0.45;100.00;100762.72;5021490;28;20064;-75
2021/10/25 01:35:47;;;;;;;35.20;14.45;;;;;;;-0.44;100.00;100757.59;5035210;28;20368;-75
2021/10/25 01:38:33;;;;;;;30.10;14.45;;;;;;;-0.48;100.00;100754.06;5021510;28;20037;-75
2021/10/25 01:41:18;;;;;;;29.65;14.13;;;;;;;-0.56;100.00;100750.31;5035718;28;20478;-75
2021/10/25 01:44:10;;;;;;;30.73;13.02;;;;;;;-0.65;100.00;100744.88;5035007;28;20045;-75
2021/10/25 01:46:54;;;;;;;32.20;14.25;;;;;;;-0.65;100.00;100743.97;5035084;28;20049;-75
2021/10/25 01:49:48;;;;;;;34.45;15.00;;;;;;;-0.65;100.00;100743.97;5035058;28;20068;-75
2021/10/25 01:52:32;;;;;;;34.60;12.82;;;;;;;-0.70;100.00;100746.41;5035032;28;20038;-75
2021/10/25 01:55:18;;;;;;;30.67;14.35;;;;;;;-0.76;100.00;100741.91;5034991;28;20042;-75
2021/10/25 01:58:05;;;;;;;28.42;13.82;;;;;;;-0.70;100.00;100728.41;5034974;28;20340;-75
2021/10/25 02:00:51;;;;;;;32.05;14.05;;;;;;;-0.75;100.00;100727.34;5034963;28;20056;-75
2021/10/25 02:03:36;;;;;;;29.48;13.45;;;;;;;-0.72;100.00;100722.31;5034863;28;20056;-75
2021/10/25 02:06:35;;;;;;;27.77;13.23;;;;;;;-0.72;100.00;100718.03;5022843;28;20159;-75
2021/10/25 02:09:22;;;;;;;30.88;13.10;;;;;;;-0.72;100.00;100705.16;5034768;28;20038;-75
2021/10/25 02:12:06;;;;;;;31.17;13.95;;;;;;;-0.80;100.00;100704.03;5034708;28;20045;-75
2021/10/25 02:14:50;;;;;;;27.17;12.90;;;;;;;-0.83;100.00;100700.50;5034858;28;20041;-75
2021/10/25 02:17:35;;;;;;;28.58;12.48;;;;;;;-0.88;100.00;100697.75;5035691;28;20046;-75
2021/10/25 02:20:19;;;;;;;28.08;12.48;;;;;;;-0.89;100.00;100697.72;5034603;28;20428;-75
2021/10/25 02:23:04;;;;;;;28.77;12.85;;;;;;;-0.96;100.00;100692.34;5020843;28;20041;-75
2021/10/25 02:25:53;;;;;;;28.65;13.00;;;;;;;-1.00;100.00;100692.19;5021389;28;20127;-75
2021/10/25 02:28:38;;;;;;;26.95;11.73;;;;;;;-0.98;100.00;100686.25;5034635;28;20068;-75
2021/10/25 02:31:24;;;;;;;28.63;11.93;;;;;;;-1.02;100.00;100681.84;5034577;28;20092;-75
2021/10/25 02:34:08;;;;;;;26.92;11.40;;;;;;;-1.10;100.00;100679.84;5034462;28;20060;-75
2021/10/25 02:36:54;;;;;;;31.52;11.93;;;;;;;-1.07;100.00;100678.25;5036378;28;20046;-75
2021/10/25 02:39:40;;;;;;;27.30;11.95;;;;;;;-1.16;100.00;100683.03;5038992;28;20045;-75
2021/10/25 02:42:25;;;;;;;26.92;11.82;;;;;;;-1.15;100.00;100682.22;5038024;28;20303;-75
2021/10/25 02:45:10;;;;;;;22.52;10.85;;;;;;;-1.13;100.00;100688.31;5038251;28;20095;-75
2021/10/25 02:47:56;;;;;;;23.20;10.63;;;;;;;-1.18;100.00;100671.81;5038136;28;20041;-75
2021/10/25 02:50:41;;;;;;;21.85;10.93;;;;;;;-1.25;100.00;100678.44;5038205;28;20045;-75
2021/10/25 02:53:26;;;;;;;30.83;11.93;;;;;;;-1.28;100.00;100672.31;5024055;28;20428;-75
2021/10/25 02:56:11;;;;;;;25.90;12.20;;;;;;;-1.29;100.00;100675.72;5037977;28;20041;-75
2021/10/25 02:58:56;;;;;;;22.52;11.43;;;;;;;-1.36;100.00;100663.47;5037830;28;20042;-75
2021/10/25 03:01:41;;;;;;;26.63;11.40;;;;;;;-1.38;100.00;100660.81;5038043;28;20067;-75
2021/10/25 03:04:26;;;;;;;28.08;11.32;;;;;;;-1.41;100.00;100659.00;5037728;28;20041;-75
2021/10/25 03:07:11;;;;;;;24.15;11.43;;;;;;;-1.43;100.00;100655.53;5037881;28;20041;-75
2021/10/25 03:10:04;;;;;;;24.42;11.23;;;;;;;-1.45;100.00;100651.16;5037835;28;20041;-75
2021/10/25 03:12:49;;;;;;;25.13;11.55;;;;;;;-1.43;100.00;100667.47;5023889;28;20041;-75
2021/10/25 03:15:34;;;;;;;26.08;11.82;;;;;;;-1.43;100.00;100667.47;5038247;28;20037;-75
2021/10/25 03:18:25;;;;;;;30.58;12.77;;;;;;;-1.45;100.00;100662.28;5037505;28;20072;-75
2021/10/25 03:21:10;;;;;;;31.33;12.82;;;;;;;-1.46;100.00;100670.84;5023534;28;20417;-75
2021/10/25 03:23:56;;;;;;;28.15;12.05;;;;;;;-1.53;100.00;100668.81;5023661;28;20391;-75
2021/10/25 03:26:40;;;;;;;29.88;13.27;;;;;;;-1.52;100.00;100668.03;5038260;28;20045;-75
2021/10/25 03:29:25;;;;;;;38.60;16.30;;;;;;;-1.58;100.00;100664.38;5037057;28;20060;-75
2021/10/25 03:32:14;;;;;;;33.67;13.55;;;;;;;-1.58;100.00;100669.50;5037238;28;20489;-75
2021/10/25 03:34:59;;;;;;;38.53;13.55;;;;;;;-1.56;100.00;100663.59;5037163;28;20065;-75
2021/10/25 03:37:44;;;;;;;29.08;13.25;;;;;;;-1.54;100.00;100653.38;5037347;28;20045;-75
2021/10/25 03:40:30;;;;;;;35.53;13.65;;;;;;;-1.56;100.00;100655.91;5036994;28;20076;-75
2021/10/25 03:43:16;;;;;;;26.95;13.32;;;;;;;-1.61;100.00;100653.97;5037090;28;20045;-75
2021/10/25 03:49:13;;;;;;;27.77;12.98;;;;;;;-1.67;100.00;100645.19;5036496;28;20045;-75
2021/10/25 03:52:09;;;;;;;34.67;15.70;;;;;;;-1.74;100.00;100642.34;5036992;28;20045;-75
2021/10/25 03:55:06;;;;;;;40.67;15.45;;;;;;;-1.69;100.00;100646.84;5037467;28;20041;-75
2021/10/25 04:01:02;;;;;;;52.67;16.52;;;;;;;-1.72;100.00;100625.31;5035286;28;20041;-75
2021/10/25 04:26:01;;;;;;;34.00;13.80;;;;;;;-1.78;100.00;100602.84;5034225;28;20072;-75
2021/10/25 04:28:46;;;;;;;31.52;13.52;;;;;;;-1.70;100.00;100597.97;5020497;28;20424;-76
2021/10/25 04:31:31;;;;;;;30.55;12.82;;;;;;;-1.69;100.00;100595.47;5034259;28;20057;-75
2021/10/25 04:34:18;;;;;;;31.40;13.10;;;;;;;-1.76;100.00;100596.03;5036655;28;20091;-75
2021/10/25 04:37:08;;;;;;;33.65;12.98;;;;;;;-1.79;100.00;100590.78;5036904;28;20088;-75
2021/10/25 04:40:06;;;;;;;29.42;13.45;;;;;;;-1.81;100.00;100583.88;5036070;28;20490;-75
2021/10/25 04:42:51;;;;;;;27.52;12.05;;;;;;;-1.77;100.00;100578.03;5035964;28;20121;-76
2021/10/25 04:45:35;;;;;;;28.40;11.45;;;;;;;-1.76;100.00;100579.75;5035912;28;20053;-76
2021/10/25 04:48:20;;;;;;;34.83;13.63;;;;;;;-1.82;100.00;100585.56;5035833;28;20041;-75
2021/10/25 04:51:19;;;;;;;33.92;14.07;;;;;;;-1.81;100.00;100578.72;5035790;28;20424;-75
2021/10/25 04:54:31;;;;;;;45.45;20.20;;;;;;;-1.67;100.00;100575.84;5035566;28;20047;-75
2021/10/25 04:57:15;;;;;;;62.75;22.27;;;;;;;-1.61;100.00;100570.06;5034632;28;20041;-75
2021/10/25 05:00:00;;;;;;;84.57;35.08;;;;;;;-1.57;100.00;100576.16;5034754;28;20065;-75
2021/10/25 05:02:45;;;;;;;104.00;44.38;;;;;;;-1.58;100.00;100575.31;5035782;28;20045;-75
2021/10/25 05:05:30;;;;;;;108.40;46.20;;;;;;;-1.54;100.00;100578.84;5035566;28;20083;-75
2021/10/25 05:08:15;;;;;;;104.25;44.50;;;;;;;-1.55;100.00;100562.56;5035531;28;20052;-75
2021/10/25 05:11:00;;;;;;;103.70;42.50;;;;;;;-1.54;100.00;100561.72;5035439;28;20124;-75
2021/10/25 05:13:45;;;;;;;93.53;39.70;;;;;;;-1.52;100.00;100561.81;5035289;28;20440;-75
2021/10/25 05:16:30;;;;;;;85.63;37.65;;;;;;;-1.52;100.00;100566.94;5035314;28;20038;-75
2021/10/25 05:19:23;;;;;;;;;;;;;;;-1.32;100.00;100570.22;5035695;28;20045;-75
2021/10/25 05:22:17;;;;;;;68.97;26.75;;;;;;;-0.93;100.00;100559.53;5022627;28;19943;-75
2021/10/25 05:25:03;;;;;;;76.90;27.55;;;;;;;-0.72;100.00;100553.38;5035320;28;20067;-75
2021/10/25 05:27:47;;;;;;;85.60;29.50;;;;;;;-0.56;100.00;100549.59;5035766;28;20432;-76
2021/10/25 05:30:32;;;;;;;61.33;20.88;;;;;;;-0.51;100.00;100560.06;5034929;28;20452;-75
2021/10/25 05:33:18;;;;;;;45.15;18.05;;;;;;;-0.21;100.00;100561.81;5035482;28;20374;-75
2021/10/25 05:36:04;;;;;;;45.22;16.08;;;;;;;-0.23;100.00;100554.03;5035896;28;20053;-75
2021/10/25 05:38:49;;;;;;;48.75;18.15;;;;;;;-0.17;100.00;100554.22;5035780;28;20077;-75
2021/10/25 05:41:39;;;;;;;44.58;14.80;;;;;;;-0.24;100.00;100555.72;5035330;28;20045;-75
2021/10/25 05:44:23;;;;;;;42.10;17.23;;;;;;;-0.19;100.00;100557.59;5036283;28;20049;-76
2021/10/25 05:47:08;;;;;;;45.65;20.95;;;;;;;-0.04;100.00;100561.47;5035343;28;20045;-76
2021/10/25 05:49:53;;;;;;;41.50;20.23;;;;;;;-0.03;100.00;100554.66;5035531;28;20064;-76
2021/10/25 05:52:37;;;;;;;48.95;19.92;;;;;;;-0.03;100.00;100560.69;5035170;28;20037;-76
2021/10/25 05:55:24;;;;;;;52.80;21.88;;;;;;;0.16;100.00;100556.03;5035047;28;20069;-76
2021/10/25 05:58:22;;;;;;;61.00;21.80;;;;;;;0.25;100.00;100558.88;5021864;28;20069;-76
2021/10/25 06:01:12;;;;;;;44.45;17.02;;;;;;;0.32;100.00;100555.66;5035640;28;20049;-76
2021/10/25 06:04:21;;;;;;;41.42;16.65;;;;;;;0.32;100.00;100557.34;5035465;28;20072;-76
2021/10/25 06:07:20;;;;;;;;;;;;;;;0.38;100.00;100560.09;5023996;28;20113;-76
2021/10/25 06:10:06;;;;;;;44.95;17.58;;;;;;;0.40;100.00;100563.59;5035408;28;19921;-76
2021/10/25 06:13:04;;;;;;;44.28;19.30;;;;;;;0.54;100.00;100564.84;5038862;28;20065;-76
2021/10/25 06:15:57;;;;;;;35.55;16.70;;;;;;;0.78;100.00;100562.06;5026095;28;20041;-76
2021/10/25 06:18:42;;;;;;;34.55;17.20;;;;;;;0.73;100.00;100555.91;5025287;28;20166;-76
2021/10/25 06:21:27;;;;;;;32.58;17.88;;;;;;;0.85;100.00;100569.13;5038819;28;20037;-76
2021/10/25 06:24:12;;;;;;;29.20;16.42;;;;;;;0.91;100.00;100570.97;5039010;28;20049;-77
2021/10/25 06:27:22;;;;;;;29.17;15.35;;;;;;;1.22;99.92;100557.16;5038322;28;20059;-77
2021/10/25 06:30:09;;;;;;;26.67;13.32;;;;;;;1.39;98.98;100568.75;5037651;28;20049;-77
2021/10/25 06:32:55;;;;;;;30.20;13.35;;;;;;;1.60;97.91;100552.03;5047803;28;20060;-77
2021/10/25 06:36:05;;;;;;;23.50;12.55;;;;;;;1.85;96.90;100559.50;5057686;28;20041;-76
2021/10/25 06:39:14;;;;;;;21.05;10.82;;;;;;;2.07;94.92;100557.38;5057966;28;20045;-77
2021/10/25 06:42:09;;;;;;;22.00;9.90;;;;;;;2.31;93.60;100554.44;5045518;28;20128;-76
2021/10/25 06:45:04;;;;;;;18.92;9.95;;;;;;;2.46;93.29;100559.91;5057904;28;20048;-77
2021/10/25 06:47:54;;;;;;;20.83;10.27;;;;;;;2.71;91.42;100568.16;5058248;28;20475;-77
2021/10/25 06:50:43;;;;;;;20.65;10.10;;;;;;;2.91;90.90;100561.63;5058265;28;20045;-74
2021/10/25 06:53:29;;;;;;;20.38;9.60;;;;;;;3.08;89.32;100548.97;5058303;28;20428;-75
2021/10/25 06:56:40;;;;;;;20.00;9.55;;;;;;;3.30;88.57;100557.09;5058515;28;20041;-74
2021/10/25 06:59:24;;;;;;;21.30;9.52;;;;;;;3.41;88.16;100548.66;5056991;28;20036;-74
2021/10/25 07:02:09;;;;;;;22.55;9.10;;;;;;;3.59;87.52;100544.59;5055886;28;20041;-74
2021/10/25 07:04:53;;;;;;;43.35;17.23;;;;;;;3.80;85.30;100550.06;5055976;28;20044;-74
2021/10/25 07:07:38;;;;;;;38.55;15.95;;;;;;;3.97;84.62;100539.97;5055887;28;20427;-74
2021/10/25 07:10:26;;;;;;;26.52;12.80;;;;;;;4.13;84.05;100552.28;5042146;28;20432;-74
2021/10/25 07:13:11;;;;;;;18.30;9.55;;;;;;;4.40;83.12;100541.38;5041790;28;20037;-74
2021/10/25 08:11:04;;;;;;;15.18;7.22;;;;;;;9.74;60.24;100497.41;5057127;28;20041;-76
2021/10/25 08:13:51;;;;;;;11.48;5.47;;;;;;;9.60;59.06;100501.03;5043208;28;20053;-76
2021/10/25 08:16:43;;;;;;;12.75;5.53;;;;;;;9.68;58.84;100487.88;5056516;28;20119;-76
2021/10/25 08:19:33;;;;;;;12.00;5.22;;;;;;;10.21;58.44;100489.00;5056986;28;20041;-76
2021/10/25 08:22:18;;;;;;;17.30;7.50;;;;;;;10.26;58.06;100487.22;5056935;28;20045;-76
2021/10/25 08:25:06;;;;;;;18.38;8.57;;;;;;;10.53;57.17;100500.84;5042584;28;20041;-76
2021/10/25 08:28:04;;;;;;;12.82;5.40;;;;;;;10.62;56.20;100495.47;5056182;28;20041;-76
2021/10/25 08:30:51;;;;;;;17.30;8.23;;;;;;;11.07;55.98;100489.53;5042086;28;20045;-76
2021/10/25 08:36:31;;;;;;;11.20;5.80;;;;;;;10.71;54.98;100495.31;5056695;28;20048;-75
2021/10/25 08:42:38;;;;;;;11.23;5.22;;;;;;;11.32;53.63;100485.63;5056535;28;20040;-76
2021/10/25 08:45:30;;;;;;;9.52;4.63;;;;;;;11.44;53.34;100489.81;5042987;28;20080;-76
2021/10/25 08:48:17;;;;;;;9.15;4.55;;;;;;;11.59;52.48;100486.88;5055912;28;20059;-76
2021/10/25 08:51:02;;;;;;;7.80;3.92;;;;;;;11.42;53.77;100481.09;5056449;28;20045;-76
2021/10/25 08:53:47;;;;;;;12.10;4.70;;;;;;;12.10;51.84;100478.91;5041867;28;20064;-76
2021/10/25 08:56:31;;;;;;;11.38;4.88;;;;;;;11.98;52.40;100484.41;5041744;28;20045;-76
2021/10/25 08:59:31;;;;;;;11.80;4.85;;;;;;;12.16;51.60;100486.69;5055966;28;20036;-76
2021/10/25 09:02:15;;;;;;;13.38;6.70;;;;;;;12.37;50.93;100485.34;5055692;28;20041;-76
2021/10/25 09:05:16;;;;;;;11.38;4.95;;;;;;;12.08;51.17;100482.47;5043321;28;20052;-76
2021/10/25 09:08:05;;;;;;;13.68;6.03;;;;;;;12.48;50.56;100471.09;5055632;28;20040;-76
2021/10/25 09:10:57;;;;;;;9.23;3.92;;;;;;;12.46;49.64;100483.44;5042758;28;20041;-76
2021/10/25 09:13:43;;;;;;;7.22;3.25;;;;;;;12.52;49.31;100476.28;5055845;28;20045;-76
2021/10/25 09:16:28;;;;;;;6.28;3.33;;;;;;;12.82;48.80;100482.56;5055458;28;20041;-76
2021/10/25 09:19:51;;;;;;;12.50;4.82;;;;;;;12.77;48.84;100475.69;5034988;28;20112;-76
2021/10/25 09:22:38;;;;;;;10.32;5.25;;;;;;;12.86;48.31;100481.59;5020746;28;20049;-76
2021/10/25 09:25:31;;;;;;;11.80;6.05;;;;;;;12.59;48.46;100477.84;5049981;28;20057;-75
2021/10/25 09:28:25;;;;;;;11.57;5.50;;;;;;;12.61;47.91;100486.56;5055273;28;20052;-76
2021/10/25 09:31:17;;;;;;;37.25;15.05;;;;;;;12.90;47.23;100469.22;5055711;28;20136;-76
2021/10/25 09:34:08;;;;;;;30.58;12.88;;;;;;;12.60;47.69;100474.31;5055064;28;20052;-76
2021/10/25 09:37:20;;;;;;;26.67;11.02;;;;;;;13.26;47.30;100466.66;5038429;28;20127;-76
2021/10/25 09:40:28;;;;;;;25.63;11.82;;;;;;;13.43;48.06;100463.59;5054582;28;20111;-76
2021/10/25 09:49:42;;;;;;;32.72;14.23;;;;;;;12.82;46.75;100464.16;5041682;28;20052;-76
2021/10/25 09:52:35;;;;;;;26.70;11.38;;;;;;;13.14;45.82;100478.31;5053010;28;20529;-76
2021/10/25 09:55:24;;;;;;;17.05;6.45;;;;;;;13.05;46.55;100466.25;5053025;28;20041;-76
2021/10/25 09:58:38;;;;;;;28.25;12.35;;;;;;;13.73;45.59;100472.41;5053067;28;20600;-76
2021/10/25 10:01:26;;;;;;;20.05;7.55;;;;;;;13.48;45.52;100467.78;5052983;28;20041;-77
2021/10/25 10:04:11;;;;;;;25.10;9.20;;;;;;;13.31;45.93;100460.34;5052734;28;20041;-76
2021/10/25 10:07:19;;;;;;;11.93;6.43;;;;;;;13.49;45.36;100468.69;5052954;28;20041;-76
2021/10/25 10:10:13;;;;;;;11.88;5.03;;;;;;;13.08;45.20;100455.66;5052838;28;20049;-76
2021/10/25 10:13:04;;;;;;;10.00;5.30;;;;;;;12.95;45.53;100450.75;5052853;28;20045;-76
2021/10/25 10:15:54;;;;;;;9.10;4.15;;;;;;;13.49;44.70;100456.38;5052733;28;20045;-76
2021/10/25 10:18:44;;;;;;;10.88;4.50;;;;;;;13.33;44.81;100449.81;5053476;28;20037;-76
2021/10/25 10:21:42;;;;;;;7.80;2.83;;;;;;;13.57;46.72;100458.81;5054834;28;20041;-76
2021/10/25 10:24:34;;;;;;;9.05;3.50;;;;;;;13.92;45.69;100444.66;5041868;28;20048;-76
2021/10/25 10:27:21;;;;;;;8.77;4.22;;;;;;;13.61;44.57;100447.28;5054694;28;20041;-76
2021/10/25 10:30:10;;;;;;;6.75;3.70;;;;;;;13.69;44.46;100447.94;5040717;28;20061;-76
2021/10/25 10:33:17;;;;;;;7.30;3.05;;;;;;;13.54;45.74;100443.94;5055187;28;20048;-76
2021/10/25 10:36:21;;;;;;;6.20;2.83;;;;;;;13.77;45.22;100445.09;5054547;28;20372;-76
2021/10/25 10:39:15;;;;;;;6.07;2.72;;;;;;;13.56;44.91;100438.66;5041299;28;20045;-76
2021/10/25 10:42:35;;;;;;;6.60;3.50;;;;;;;13.79;43.84;100438.03;5055874;28;20064;-76
2021/10/25 10:45:27;;;;;;;7.72;4.20;;;;;;;14.04;44.62;100427.66;5054557;28;20432;-76
2021/10/25 10:48:13;;;;;;;5.22;2.25;;;;;;;13.77;43.50;100427.50;5055072;28;20041;-76
2021/10/25 10:51:04;;;;;;;6.47;3.40;;;;;;;13.89;42.62;100425.47;5055032;28;20037;-76
2021/10/25 10:54:00;;;;;;;7.07;2.60;;;;;;;13.93;43.03;100422.69;5055480;28;20048;-76
2021/10/25 10:57:06;;;;;;;6.78;2.72;;;;;;;14.14;43.17;100417.72;5055435;28;20048;-76
2021/10/25 10:59:59;;;;;;;8.20;2.30;;;;;;;13.93;42.60;100414.78;5057410;28;20037;-76
2021/10/25 11:02:53;;;;;;;7.82;3.85;;;;;;;14.14;42.35;100410.66;5057953;28;20041;-76
2021/10/25 11:05:40;;;;;;;5.78;3.05;;;;;;;14.33;42.65;100410.06;5057914;28;20045;-76
2021/10/25 11:08:48;;;;;;;10.57;5.43;;;;;;;14.45;42.61;100412.34;5044358;28;20048;-76
2021/10/25 11:11:33;;;;;;;8.25;3.15;;;;;;;14.55;42.04;100405.03;5057793;28;20087;-76
2021/10/25 11:14:27;;;;;;;20.00;8.15;;;;;;;14.70;42.60;100400.13;5058385;28;20427;-76
2021/10/25 11:17:18;;;;;;;8.90;4.78;;;;;;;14.72;41.35;100398.31;5057733;28;20052;-76
2021/10/25 11:20:04;;;;;;;12.70;5.50;;;;;;;14.61;40.97;100396.94;5058637;28;20037;-76
2021/10/25 11:22:48;;;;;;;7.25;2.78;;;;;;;14.30;41.91;100397.00;5058200;28;20088;-76
2021/10/25 11:25:43;;;;;;;10.20;2.67;;;;;;;14.42;41.83;100383.44;5043799;28;20045;-76
2021/10/25 11:28:27;;;;;;;11.38;3.88;;;;;;;14.96;42.18;100394.00;5058018;28;20051;-76
2021/10/25 11:31:12;;;;;;;6.45;3.88;;;;;;;14.80;40.86;100382.25;5043150;28;20053;-76
2021/10/25 11:33:57;;;;;;;12.23;4.10;;;;;;;14.93;40.85;100382.69;5058639;28;20407;-76
2021/10/25 11:36:55;;;;;;;9.95;3.88;;;;;;;14.98;40.96;100369.34;5058079;28;20474;-76
2021/10/25 11:39:47;;;;;;;6.80;1.92;;;;;;;14.87;39.32;100377.63;5043203;28;20116;-76
2021/10/25 11:42:38;;;;;;;23.53;8.77;;;;;;;14.90;40.11;100362.53;5057887;28;20033;-76
2021/10/25 11:45:25;;;;;;;8.93;3.35;;;;;;;14.70;39.54;100371.13;5057134;28;20427;-76
2021/10/25 11:48:09;;;;;;;9.18;4.03;;;;;;;14.99;39.83;100363.16;5042972;28;20106;-76
2021/10/25 11:50:58;;;;;;;11.45;4.65;;;;;;;14.66;39.77;100366.03;5056836;28;20435;-76
2021/10/25 11:53:43;;;;;;;8.02;3.33;;;;;;;14.94;39.35;100356.25;5056553;28;20048;-76
2021/10/25 11:56:29;;;;;;;16.98;8.52;;;;;;;14.80;40.08;100353.22;5056796;28;20044;-76
2021/10/25 11:59:14;;;;;;;10.13;4.80;;;;;;;14.86;40.03;100347.75;5057401;28;20037;-76
2021/10/25 12:02:08;;;;;;;7.07;2.95;;;;;;;14.85;39.70;100356.59;5057698;28;20036;-76
2021/10/25 12:04:53;;;;;;;8.13;3.30;;;;;;;14.99;39.79;100347.34;5056887;28;20045;-77
2021/10/25 12:07:48;;;;;;;11.43;4.03;;;;;;;14.93;39.33;100351.91;5043239;28;20045;-76
2021/10/25 12:10:33;;;;;;;8.93;3.72;;;;;;;14.84;40.26;100346.94;5056900;28;20045;-76
2021/10/25 12:13:18;;;;;;;10.70;4.32;;;;;;;14.96;40.07;100343.03;5056679;28;20061;-76
2021/10/25 12:16:08;;;;;;;9.63;4.93;;;;;;;15.16;39.97;100345.81;5056986;28;20455;-77
2021/10/25 12:18:53;;;;;;;12.95;7.93;;;;;;;14.58;40.15;100344.31;5056055;28;20151;-76
2021/10/25 12:21:38;;;;;;;6.93;3.50;;;;;;;14.69;39.53;100324.59;5058208;28;20428;-76
2021/10/25 12:24:22;;;;;;;14.27;5.55;;;;;;;14.62;39.91;100335.38;5042655;28;20040;-76
2021/10/25 12:27:11;;;;;;;9.90;4.80;;;;;;;14.40;40.40;100333.44;5057001;28;20438;-76
2021/10/25 12:30:07;;;;;;;11.75;6.15;;;;;;;14.42;40.17;100330.75;5054109;28;20053;-76
2021/10/25 12:33:00;;;;;;;13.00;8.20;;;;;;;14.66;39.35;100321.22;5054214;28;20041;-76
2021/10/25 12:35:48;;;;;;;18.13;9.10;;;;;;;14.11;38.87;100315.94;5054094;28;20049;-76
2021/10/25 12:38:39;;;;;;;18.45;12.15;;;;;;;14.20;38.61;100315.63;5054888;28;20037;-76
2021/10/25 12:41:23;;;;;;;8.93;4.45;;;;;;;14.35;38.99;100308.13;5054044;28;20051;-76
2021/10/25 12:44:08;;;;;;;7.80;2.88;;;;;;;14.19;38.19;100310.41;5053957;28;20414;-76
2021/10/25 12:47:08;;;;;;;6.45;3.25;;;;;;;13.99;39.14;100309.25;5054773;28;20423;-76
2021/10/25 12:49:55;;;;;;;45.08;22.40;;;;;;;14.11;38.98;100308.03;5054324;28;20049;-76
2021/10/25 12:52:42;;;;;;;11.98;5.32;;;;;;;14.00;39.05;100304.84;5054395;28;20435;-75
2021/10/25 12:55:26;;;;;;;4.13;2.13;;;;;;;13.93;39.00;100295.41;5041242;28;20052;-74
2021/10/25 12:58:11;;;;;;;7.68;3.05;;;;;;;13.90;38.58;100292.88;5055493;28;20045;-75
2021/10/25 13:01:08;;;;;;;9.43;2.97;;;;;;;13.89;39.28;100299.94;5055454;28;20041;-75
2021/10/25 13:03:57;;;;;;;6.53;3.47;;;;;;;13.73;39.64;100288.13;5055413;28;20362;-74
2021/10/25 13:06:41;;;;;;;12.93;5.82;;;;;;;13.82;39.42;100287.00;5055332;28;20063;-75
2021/10/25 13:09:26;;;;;;;56.95;25.77;;;;;;;13.81;40.26;100286.13;5055546;28;20045;-75
2021/10/25 13:12:10;;;;;;;10.93;4.80;;;;;;;13.74;39.69;100282.81;5056064;28;20049;-75
2021/10/25 13:14:55;;;;;;;34.53;11.75;;;;;;;13.44;39.41;100278.47;5056376;28;20037;-75
2021/10/25 13:17:41;;;;;;;42.08;16.10;;;;;;;13.47;39.85;100278.41;5041126;28;20037;-73
2021/10/25 13:20:29;;;;;;;17.65;6.90;;;;;;;13.32;40.00;100274.44;5055026;28;20041;-75
2021/10/25 13:23:14;;;;;;;10.95;3.55;;;;;;;13.18;40.52;100276.56;5056152;28;20041;-75
2021/10/25 13:25:59;;;;;;;25.05;9.20;;;;;;;13.13;41.31;100278.44;5055220;28;20123;-75
2021/10/25 13:28:45;;;;;;;13.02;7.25;;;;;;;13.08;41.59;100279.44;5056002;28;20055;-75
2021/10/25 13:31:29;;;;;;;10.65;5.82;;;;;;;13.02;41.04;100281.41;5040753;28;20122;-75
2021/10/25 13:34:15;;;;;;;11.68;5.07;;;;;;;12.75;41.21;100273.34;5041332;28;20056;-73
2021/10/25 13:37:00;;;;;;;10.13;5.40;;;;;;;12.77;41.27;100275.94;5055157;28;20045;-73
2021/10/25 13:39:44;;;;;;;16.08;7.88;;;;;;;12.82;41.55;100277.53;5056024;28;20048;-73
2021/10/25 13:42:29;;;;;;;25.90;11.45;;;;;;;12.77;41.89;100282.06;5040838;28;20116;-73
2021/10/25 13:45:13;;;;;;;6.03;3.42;;;;;;;12.72;43.20;100281.31;5055492;28;20060;-74
2021/10/25 13:47:59;;;;;;;14.85;5.65;;;;;;;12.63;42.71;100273.66;5055999;28;20041;-73
2021/10/25 13:50:43;;;;;;;7.88;2.97;;;;;;;12.53;41.76;100264.31;5055182;28;20052;-75
2021/10/25 13:53:29;;;;;;;13.38;5.18;;;;;;;12.52;41.71;100265.22;5055096;28;20037;-75
2021/10/25 13:56:15;;;;;;;113.75;66.47;;;;;;;12.38;42.35;100266.44;5054979;28;20041;-75
2021/10/25 13:58:59;;;;;;;39.38;25.23;;;;;;;12.22;42.56;100253.69;5054932;28;20049;-75
2021/10/25 14:01:44;;;;;;;22.20;11.23;;;;;;;12.11;42.81;100253.97;5056253;28;20045;-73
2021/10/25 14:04:29;;;;;;;22.50;9.23;;;;;;;12.06;42.69;100247.97;5054985;28;20053;-75
2021/10/25 14:07:20;;;;;;;19.33;8.02;;;;;;;11.96;43.64;100247.34;5055883;28;20045;-75
2021/10/25 14:10:18;;;;;;;14.25;5.95;;;;;;;11.84;44.28;100248.47;5041560;28;20059;-73
2021/10/25 14:13:09;;;;;;;15.77;7.90;;;;;;;11.76;44.61;100249.50;5055166;28;20040;-75
2021/10/25 14:19:02;;;;;;;34.13;12.57;;;;;;;11.64;45.98;100233.16;5054581;28;20435;-73
2021/10/25 14:21:47;;;;;;;31.10;12.50;;;;;;;11.56;47.12;100235.06;5038306;28;20057;-74
2021/10/25 14:24:32;;;;;;;50.22;20.27;;;;;;;11.56;46.51;100228.97;5053151;28;20045;-73
2021/10/25 14:27:16;;;;;;;49.08;18.90;;;;;;;11.51;47.54;100231.72;5053178;28;20268;-73
2021/10/25 14:30:01;;;;;;;54.42;20.40;;;;;;;11.51;47.31;100241.34;5052986;28;20045;-74